createdAt,value
2023-02-19T00:01:43.796Z,102118.50
2023-02-19T00:04:35.617Z,102081.16
2023-02-19T00:07:56.346Z,102102.88
2023-02-19T00:10:45.328Z,102135.88
2023-02-19T00:35:51.579Z,102138.44
2023-02-19T00:38:32.091Z,102201.06
2023-02-19T00:44:54.936Z,102186.25
2023-02-19T00:47:28.464Z,102164.53
2023-02-19T00:51:05.727Z,102240.19
2023-02-19T00:53:42.064Z,102212.38
2023-02-19T00:56:13.487Z,102210.63
2023-02-19T00:59:22.932Z,102248.88
2023-02-19T01:05:01.294Z,102193.25
2023-02-19T01:12:26.927Z,102255.84
2023-02-19T01:15:16.482Z,102207.16
2023-02-19T01:18:00.041Z,102247.16
2023-02-19T01:27:48.169Z,102222.78
2023-02-19T01:30:22.264Z,102231.47
2023-02-19T01:34:19.464Z,102235.75
2023-02-19T01:39:52.903Z,102199.19
2023-02-19T01:42:22.655Z,102147.91
2023-02-19T01:52:32.500Z,102196.53
2023-02-19T01:55:18.404Z,102243.50
2023-02-19T01:57:57.618Z,102205.19
2023-02-19T02:01:58.358Z,102198.22
2023-02-19T02:04:46.730Z,102180.00
2023-02-19T02:08:15.526Z,102196.50
2023-02-19T02:19:49.331Z,102274.72
2023-02-19T02:23:49.817Z,102279.03
2023-02-19T02:26:46.146Z,102239.88
2023-02-19T02:37:18.786Z,102302.38
2023-02-19T02:45:59.534Z,102284.91
2023-02-19T02:56:56.555Z,102213.47
2023-02-19T02:59:54.879Z,102313.53
2023-02-19T03:10:13.325Z,102326.44
2023-02-19T03:17:34.818Z,102321.19
2023-02-19T03:20:07.621Z,102285.44
2023-02-19T03:22:38.884Z,102329.88
2023-02-19T03:25:53.778Z,102317.63
2023-02-19T03:28:46.404Z,102329.81
2023-02-19T03:31:19.011Z,102306.28
2023-02-19T03:33:57.749Z,102289.66
2023-02-19T03:36:31.705Z,102324.44
2023-02-19T03:39:05.411Z,102333.13
2023-02-19T03:41:39.300Z,102352.34
2023-02-19T03:44:31.283Z,102282.59
2023-02-19T03:47:59.239Z,102358.41
2023-02-19T03:58:41.043Z,102375.75
2023-02-19T04:01:41.161Z,102345.25
2023-02-19T04:04:19.227Z,102373.97
2023-02-19T04:06:58.487Z,102317.25
2023-02-19T04:09:49.274Z,102295.41
2023-02-19T04:12:23.158Z,102317.16
2023-02-19T04:15:12.271Z,102348.50
2023-02-19T04:18:18.444Z,102355.44
2023-02-19T04:20:54.818Z,102409.38
2023-02-19T04:23:28.704Z,102305.69
2023-02-19T04:26:03.371Z,102338.75
2023-02-19T04:28:43.590Z,102348.34
2023-02-19T04:31:15.972Z,102349.16
2023-02-19T04:36:52.827Z,102335.94
2023-02-19T04:39:19.671Z,102357.72
2023-02-19T04:45:10.011Z,102409.16
2023-02-19T04:47:38.790Z,102424.78
2023-02-19T04:50:33.223Z,102442.19
2023-02-19T04:53:08.508Z,102422.09
2023-02-19T04:58:55.087Z,102409.06
2023-02-19T05:01:22.781Z,102445.63
2023-02-19T05:03:52.818Z,102403.78
2023-02-19T05:06:22.672Z,102442.16
2023-02-19T05:08:52.028Z,102450.88
2023-02-19T05:11:20.296Z,102439.47
2023-02-19T05:13:46.935Z,102426.38
2023-02-19T05:16:16.473Z,102436.94
2023-02-19T05:18:45.000Z,102410.72
2023-02-19T05:21:12.895Z,102398.59
2023-02-19T05:23:40.368Z,102402.91
2023-02-19T05:26:10.142Z,102386.38
2023-02-19T05:28:37.680Z,102389.88
2023-02-19T05:31:09.831Z,102437.81
2023-02-19T05:33:54.752Z,102430.00
2023-02-19T05:36:27.871Z,102404.75
2023-02-19T05:39:10.476Z,102381.22
2023-02-19T05:41:37.301Z,102442.22
2023-02-19T05:44:05.423Z,102455.22
2023-02-19T05:46:34.714Z,102483.13
2023-02-19T05:49:04.356Z,102423.00
2023-02-19T05:51:30.969Z,102436.13
2023-02-19T05:53:58.469Z,102450.94
2023-02-19T05:56:25.352Z,102426.47
2023-02-19T05:58:53.460Z,102443.00
2023-02-19T06:01:21.941Z,102408.09
2023-02-19T06:03:48.724Z,102423.72
2023-02-19T06:06:21.379Z,102414.97
2023-02-19T06:08:51.393Z,102385.28
2023-02-19T06:11:32.633Z,102393.97
2023-02-19T06:14:02.957Z,102373.91
2023-02-19T06:16:31.036Z,102386.94
2023-02-19T06:18:59.034Z,102371.22
2023-02-19T06:21:29.786Z,102361.47
2023-02-19T06:23:56.490Z,102432.97
2023-02-19T06:26:45.014Z,102416.34
2023-02-19T06:29:16.237Z,102414.41
2023-02-19T06:31:46.497Z,102480.69
2023-02-19T06:34:26.786Z,102476.25
2023-02-19T06:36:57.878Z,102486.59
2023-02-19T06:47:13.792Z,102461.88
2023-02-19T06:50:27.339Z,102451.31
2023-02-19T06:53:07.674Z,102433.78
2023-02-19T06:55:36.144Z,102487.94
2023-02-19T06:58:13.657Z,102462.50
2023-02-19T07:03:48.423Z,102505.19
2023-02-19T07:10:00.051Z,102520.75
2023-02-19T07:13:08.070Z,102498.13
2023-02-19T07:15:45.508Z,102505.91
2023-02-19T07:19:24.697Z,102517.19
2023-02-19T07:22:04.368Z,102460.38
2023-02-19T07:24:43.502Z,102483.09
2023-02-19T08:02:46.621Z,102615.91
2023-02-19T08:05:23.555Z,102600.22
2023-02-19T08:07:51.470Z,102565.28
2023-02-19T08:10:36.564Z,102587.97
2023-02-19T08:13:25.380Z,102559.22
2023-02-19T08:16:21.774Z,102599.56
2023-02-19T08:18:57.966Z,102575.09
2023-02-19T08:21:25.168Z,102604.00
2023-02-19T08:23:54.494Z,102624.09
2023-02-19T08:26:23.892Z,102619.66
2023-02-19T08:28:50.967Z,102597.81
2023-02-19T08:31:17.920Z,102628.25
2023-02-19T08:33:44.582Z,102609.75
2023-02-19T08:36:16.577Z,102636.78
2023-02-19T08:38:57.420Z,102601.06
2023-02-19T08:41:38.609Z,102598.59
2023-02-19T08:45:50.338Z,102652.03
2023-02-19T08:47:25.306Z,102642.47
2023-02-19T08:50:16.046Z,102640.16
2023-02-19T08:53:01.828Z,102623.69
2023-02-19T08:55:28.882Z,102663.06
2023-02-19T09:04:20.491Z,102598.72
2023-02-19T09:06:56.272Z,102651.13
2023-02-19T09:12:09.836Z,102682.53
2023-02-19T09:14:52.293Z,102663.38
2023-02-19T09:17:42.332Z,102645.94
2023-02-19T09:20:34.620Z,102679.16
2023-02-19T09:23:01.231Z,102644.13
2023-02-19T09:25:43.260Z,102612.75
2023-02-19T09:29:09.197Z,102653.91
2023-02-19T09:33:09.436Z,102572.94
2023-02-19T09:35:40.783Z,102629.59
2023-02-19T09:38:18.472Z,102645.41
2023-02-19T09:40:53.879Z,102638.44
2023-02-19T09:44:00.613Z,102657.75
2023-02-19T09:49:54.410Z,102659.63
2023-02-19T09:52:45.511Z,102738.28
2023-02-19T09:55:44.900Z,102637.97
2023-02-19T09:58:35.166Z,102762.00
2023-02-19T10:05:15.370Z,102782.25
2023-02-19T10:07:52.851Z,102777.13
2023-02-19T10:10:32.215Z,102720.44
2023-02-19T10:13:46.945Z,102721.41
2023-02-19T10:16:40.744Z,102763.34
2023-02-19T10:19:28.520Z,102707.59
2023-02-19T10:21:57.260Z,102729.38
2023-02-19T10:24:27.457Z,102729.44
2023-02-19T10:27:00.628Z,102699.78
2023-02-19T10:29:29.478Z,102748.63
2023-02-19T10:32:27.070Z,102770.44
2023-02-19T10:35:32.974Z,102710.25
2023-02-19T10:38:25.487Z,102671.03
2023-02-19T10:41:15.443Z,102658.84
2023-02-19T11:06:54.003Z,102788.69
2023-02-19T11:09:35.066Z,102759.66
2023-02-19T11:12:04.338Z,102768.22
2023-02-19T11:14:35.090Z,102733.50
2023-02-19T11:17:10.865Z,102763.13
2023-02-19T11:19:42.735Z,102777.19
2023-02-19T11:22:47.653Z,102787.69
2023-02-19T11:25:14.624Z,102796.50
2023-02-19T11:28:17.346Z,102784.31
2023-02-19T11:30:55.181Z,102687.53
2023-02-19T11:33:53.319Z,102730.81
2023-02-19T11:39:48.785Z,102715.81
2023-02-19T11:43:08.818Z,102725.38
2023-02-19T11:45:48.862Z,102755.88
2023-02-19T11:48:29.600Z,102747.16
2023-02-19T11:55:22.199Z,102797.13
2023-02-19T11:58:04.709Z,102726.34
2023-02-19T12:00:39.248Z,102701.78
2023-02-19T12:03:47.644Z,102777.28
2023-02-19T12:06:33.199Z,102708.88
2023-02-19T12:12:50.777Z,102666.63
2023-02-19T12:15:36.226Z,102766.72
2023-02-19T12:18:20.801Z,102718.19
2023-02-19T12:21:17.110Z,102755.59
2023-02-19T12:23:55.701Z,102746.88
2023-02-19T12:26:29.191Z,102683.19
2023-02-19T12:29:11.210Z,102738.00
2023-02-19T12:32:11.436Z,102676.22
2023-02-19T12:34:59.853Z,102707.16
2023-02-19T12:37:56.199Z,102674.44
2023-02-19T12:40:44.644Z,102651.72
2023-02-19T12:43:20.239Z,102705.53
2023-02-19T12:46:03.311Z,102702.94
2023-02-19T12:48:40.438Z,102712.53
2023-02-19T12:51:22.591Z,102662.16
2023-02-19T12:54:25.830Z,102690.78
2023-02-19T12:57:15.650Z,102699.38
2023-02-19T13:03:49.623Z,102623.13
2023-02-19T13:06:29.628Z,102686.63
2023-02-19T13:09:07.356Z,102630.22
2023-02-19T13:12:02.319Z,102618.94
2023-02-19T13:14:39.279Z,102643.22
2023-02-19T13:18:12.886Z,102705.75
2023-02-19T13:21:02.342Z,102651.09
2023-02-19T13:23:59.805Z,102683.19
2023-02-19T13:31:15.607Z,102691.50
2023-02-19T13:34:58.531Z,102668.81
2023-02-19T15:34:36.785Z,102619.22
2023-02-19T15:37:39.358Z,102519.19
2023-02-19T15:40:52.982Z,102588.03
2023-02-19T15:43:52.651Z,102542.63
2023-02-19T15:47:16.830Z,102557.00
2023-02-19T15:54:40.612Z,102564.44
2023-02-19T16:01:45.713Z,102508.31
2023-02-19T16:40:21.948Z,102536.78
2023-02-19T16:43:08.632Z,102565.75
2023-02-19T17:48:33.733Z,102602.06
2023-02-19T17:56:39.946Z,102600.41
2023-02-19T18:01:55.753Z,102572.56
2023-02-19T18:04:22.718Z,102610.00
2023-02-19T18:06:50.630Z,102603.94
2023-02-19T18:09:19.758Z,102586.53
2023-02-19T19:02:17.973Z,102595.03
2023-02-19T19:04:51.991Z,102540.13
2023-02-19T22:03:15.271Z,102624.69
2023-02-19T22:06:27.447Z,102542.41
2023-02-19T22:31:07.886Z,102657.47
